sensor_id;sensor_type;location;lat;lon;timestamp;pressure;altitude;pressure_sealevel;temperature;humidity
7297;BME280;40758;54.038;11.684;2022-12-07T00:01:46;100875.63;;;-0.22;100.00
7297;BME280;40758;54.038;11.684;2022-12-07T00:04:17;100877.59;;;-0.27;100.00
7297;BME280;40758;54.038;11.684;2022-12-07T00:06:52;100883.91;;;-0.31;100.00
7297;BME280;40758;54.038;11.684;2022-12-07T00:09:28;100873.44;;;-0.34;100.00
7297;BME280;40758;54.038;11.684;2022-12-07T00:11:57;100870.94;;;-0.37;100.00
7297;BME280;40758;54.038;11.684;2022-12-07T00:14:26;100863.06;;;-0.39;100.00
7297;BME280;40758;54.038;11.684;2022-12-07T00:16:55;100860.47;;;-0.41;100.00
7297;BME280;40758;54.038;11.684;2022-12-07T00:19:24;100857.78;;;-0.39;100.00
7297;BME280;40758;54.038;11.684;2022-12-07T00:21:54;100854.22;;;-0.38;100.00
7297;BME280;40758;54.038;11.684;2022-12-07T00:24:25;100847.31;;;-0.42;100.00
7297;BME280;40758;54.038;11.684;2022-12-07T00:26:58;100849.00;;;-0.39;100.00
7297;BME280;40758;54.038;11.684;2022-12-07T00:29:27;100838.47;;;-0.41;100.00
7297;BME280;40758;54.038;11.684;2022-12-07T00:31:57;100842.81;;;-0.38;100.00
7297;BME280;40758;54.038;11.684;2022-12-07T00:34:29;100827.81;;;-0.38;100.00
7297;BME280;40758;54.038;11.684;2022-12-07T00:37:00;100827.00;;;-0.40;100.00
7297;BME280;40758;54.038;11.684;2022-12-07T00:39:31;100828.75;;;-0.39;100.00
7297;BME280;40758;54.038;11.684;2022-12-07T00:42:03;100819.03;;;-0.38;100.00
7297;BME280;40758;54.038;11.684;2022-12-07T00:44:32;100822.59;;;-0.39;100.00
7297;BME280;40758;54.038;11.684;2022-12-07T00:47:01;100818.22;;;-0.41;100.00
7297;BME280;40758;54.038;11.684;2022-12-07T00:49:33;100812.03;;;-0.39;100.00
7297;BME280;40758;54.038;11.684;2022-12-07T00:52:02;100809.16;;;-0.33;100.00
7297;BME280;40758;54.038;11.684;2022-12-07T00:54:40;100804.00;;;-0.36;100.00
7297;BME280;40758;54.038;11.684;2022-12-07T00:57:09;100797.78;;;-0.35;100.00
7297;BME280;40758;54.038;11.684;2022-12-07T00:59:41;100791.72;;;-0.37;100.00
7297;BME280;40758;54.038;11.684;2022-12-07T01:02:10;100798.59;;;-0.33;100.00
7297;BME280;40758;54.038;11.684;2022-12-07T01:04:39;100794.25;;;-0.34;100.00
7297;BME280;40758;54.038;11.684;2022-12-07T01:07:11;100796.88;;;-0.34;100.00
7297;BME280;40758;54.038;11.684;2022-12-07T01:09:43;100786.91;;;-0.26;100.00
7297;BME280;40758;54.038;11.684;2022-12-07T01:12:15;100787.09;;;-0.31;100.00
7297;BME280;40758;54.038;11.684;2022-12-07T01:14:44;100789.66;;;-0.29;100.00
7297;BME280;40758;54.038;11.684;2022-12-07T01:17:15;100790.47;;;-0.27;100.00
7297;BME280;40758;54.038;11.684;2022-12-07T01:19:46;100782.53;;;-0.27;100.00
7297;BME280;40758;54.038;11.684;2022-12-07T01:22:18;100777.03;;;-0.21;100.00
7297;BME280;40758;54.038;11.684;2022-12-07T01:24:49;100777.84;;;-0.19;100.00
7297;BME280;40758;54.038;11.684;2022-12-07T01:27:22;100768.06;;;-0.17;100.00
7297;BME280;40758;54.038;11.684;2022-12-07T01:30:03;100768.25;;;-0.22;100.00
7297;BME280;40758;54.038;11.684;2022-12-07T01:32:33;100762.91;;;-0.20;100.00
7297;BME280;40758;54.038;11.684;2022-12-07T01:35:04;100768.06;;;-0.17;100.00
7297;BME280;40758;54.038;11.684;2022-12-07T01:37:38;100762.03;;;-0.21;100.00
7297;BME280;40758;54.038;11.684;2022-12-07T01:40:11;100755.78;;;-0.18;100.00
7297;BME280;40758;54.038;11.684;2022-12-07T01:42:44;100759.34;;;-0.19;100.00
7297;BME280;40758;54.038;11.684;2022-12-07T01:45:39;100755.78;;;-0.18;100.00
7297;BME280;40758;54.038;11.684;2022-12-07T01:48:18;100759.22;;;-0.16;100.00
7297;BME280;40758;54.038;11.684;2022-12-07T01:50:53;100755.66;;;-0.15;100.00
7297;BME280;40758;54.038;11.684;2022-12-07T01:53:30;100757.25;;;-0.11;100.00
7297;BME280;40758;54.038;11.684;2022-12-07T01:56:08;100754.69;;;-0.13;100.00
7297;BME280;40758;54.038;11.684;2022-12-07T01:58:42;100747.59;;;-0.12;100.00
7297;BME280;40758;54.038;11.684;2022-12-07T02:01:11;100743.19;;;-0.12;100.00
7297;BME280;40758;54.038;11.684;2022-12-07T02:03:46;100742.22;;;-0.09;100.00
7297;BME280;40758;54.038;11.684;2022-12-07T02:06:24;100743.81;;;-0.05;100.00
7297;BME280;40758;54.038;11.684;2022-12-07T02:08:58;100743.72;;;-0.02;100.00
7297;BME280;40758;54.038;11.684;2022-12-07T02:11:30;100734.97;;;-0.04;100.00
7297;BME280;40758;54.038;11.684;2022-12-07T02:14:04;100736.06;;;-0.10;100.00
7297;BME280;40758;54.038;11.684;2022-12-07T02:16:46;100727.19;;;-0.07;100.00
7297;BME280;40758;54.038;11.684;2022-12-07T02:20:03;100726.31;;;-0.08;100.00
7297;BME280;40758;54.038;11.684;2022-12-07T02:23:18;100714.75;;;-0.05;100.00
7297;BME280;40758;54.038;11.684;2022-12-07T02:29:26;100710.84;;;0.05;100.00
7297;BME280;40758;54.038;11.684;2022-12-07T02:32:11;100702.13;;;0.03;100.00
7297;BME280;40758;54.038;11.684;2022-12-07T02:34:54;100702.13;;;0.03;100.00
7297;BME280;40758;54.038;11.684;2022-12-07T02:37:45;100693.38;;;0.01;100.00
7297;BME280;40758;54.038;11.684;2022-12-07T02:40:35;100699.41;;;0.05;100.00
7297;BME280;40758;54.038;11.684;2022-12-07T02:43:21;100692.22;;;0.08;100.00
7297;BME280;40758;54.038;11.684;2022-12-07T02:46:03;100692.28;;;0.07;100.00
7297;BME280;40758;54.038;11.684;2022-12-07T02:48:38;100684.34;;;0.07;100.00
7297;BME280;40758;54.038;11.684;2022-12-07T02:51:14;100687.06;;;0.05;100.00
7297;BME280;40758;54.038;11.684;2022-12-07T02:53:44;100683.56;;;0.05;100.00
7297;BME280;40758;54.038;11.684;2022-12-07T02:56:41;100675.59;;;0.06;100.00
7297;BME280;40758;54.038;11.684;2022-12-07T02:59:25;100681.66;;;0.08;100.00
7297;BME280;40758;54.038;11.684;2022-12-07T03:02:24;100669.31;;;0.09;100.00
7297;BME280;40758;54.038;11.684;2022-12-07T03:05:14;100680.38;;;0.18;100.00
7297;BME280;40758;54.038;11.684;2022-12-07T03:07:57;100682.75;;;0.24;100.00
7297;BME280;40758;54.038;11.684;2022-12-07T03:10:41;100683.06;;;0.17;100.00
7297;BME280;40758;54.038;11.684;2022-12-07T03:13:28;100675.91;;;0.19;100.00
7297;BME280;40758;54.038;11.684;2022-12-07T03:16:09;100682.66;;;0.48;100.00
7297;BME280;40758;54.038;11.684;2022-12-07T03:18:55;100677.22;;;0.30;100.00
7297;BME280;40758;54.038;11.684;2022-12-07T03:21:33;100667.41;;;0.32;100.00
7297;BME280;40758;54.038;11.684;2022-12-07T03:24:24;100663.06;;;0.31;100.00
7297;BME280;40758;54.038;11.684;2022-12-07T03:27:08;100659.78;;;0.47;100.00
7297;BME280;40758;54.038;11.684;2022-12-07T03:29:49;100654.63;;;0.64;100.00
7297;BME280;40758;54.038;11.684;2022-12-07T03:32:32;100649.25;;;0.86;100.00
7297;BME280;40758;54.038;11.684;2022-12-07T03:35:14;100653.25;;;0.94;100.00
7297;BME280;40758;54.038;11.684;2022-12-07T03:37:54;100642.63;;;0.96;100.00
7297;BME280;40758;54.038;11.684;2022-12-07T03:40:32;100642.13;;;1.06;100.00
7297;BME280;40758;54.038;11.684;2022-12-07T03:43:04;100634.53;;;1.17;100.00
7297;BME280;40758;54.038;11.684;2022-12-07T03:45:51;100630.22;;;1.16;100.00
7297;BME280;40758;54.038;11.684;2022-12-07T03:48:35;100622.97;;;1.20;100.00
7297;BME280;40758;54.038;11.684;2022-12-07T03:51:16;100624.53;;;1.24;100.00
7297;BME280;40758;54.038;11.684;2022-12-07T03:54:10;100624.41;;;1.27;100.00
7297;BME280;40758;54.038;11.684;2022-12-07T03:56:43;100626.19;;;1.27;100.00
7297;BME280;40758;54.038;11.684;2022-12-07T03:59:16;100631.34;;;1.30;100.00
7297;BME280;40758;54.038;11.684;2022-12-07T04:01:53;100630.84;;;1.21;100.00
7297;BME280;40758;54.038;11.684;2022-12-07T04:04:26;100636.47;;;1.14;100.00
7297;BME280;40758;54.038;11.684;2022-12-07T04:07:00;100631.91;;;1.17;100.00
7297;BME280;40758;54.038;11.684;2022-12-07T04:09:29;100630.34;;;1.13;100.00
7297;BME280;40758;54.038;11.684;2022-12-07T04:11:59;100624.75;;;1.19;100.00
7297;BME280;40758;54.038;11.684;2022-12-07T04:14:28;100619.47;;;1.19;100.00
7297;BME280;40758;54.038;11.684;2022-12-07T04:16:58;100625.63;;;1.20;100.00
7297;BME280;40758;54.038;11.684;2022-12-07T04:19:33;100621.03;;;1.23;100.00
7297;BME280;40758;54.038;11.684;2022-12-07T04:22:08;100627.28;;;1.23;100.00
7297;BME280;40758;54.038;11.684;2022-12-07T04:24:37;100619.34;;;1.23;100.00
7297;BME280;40758;54.038;11.684;2022-12-07T04:27:06;100619.91;;;1.29;100.00
7297;BME280;40758;54.038;11.684;2022-12-07T04:29:38;100617.97;;;1.33;100.00
7297;BME280;40758;54.038;11.684;2022-12-07T04:32:10;100620.31;;;1.39;100.00
7297;BME280;40758;54.038;11.684;2022-12-07T04:34:39;100624.91;;;1.35;100.00
7297;BME280;40758;54.038;11.684;2022-12-07T04:37:09;100619.41;;;1.40;100.00
7297;BME280;40758;54.038;11.684;2022-12-07T04:39:38;100623.78;;;1.41;100.00
7297;BME280;40758;54.038;11.684;2022-12-07T04:42:12;100620.19;;;1.42;100.00
7297;BME280;40758;54.038;11.684;2022-12-07T04:44:45;100621.31;;;1.36;100.00
7297;BME280;40758;54.038;11.684;2022-12-07T04:47:14;100621.03;;;1.42;100.00
7297;BME280;40758;54.038;11.684;2022-12-07T04:49:47;100621.31;;;1.36;100.00
7297;BME280;40758;54.038;11.684;2022-12-07T04:52:18;100623.91;;;1.38;100.00
7297;BME280;40758;54.038;11.684;2022-12-07T04:54:54;100625.78;;;1.36;100.00
7297;BME280;40758;54.038;11.684;2022-12-07T04:57:24;100622.16;;;1.37;100.00
7297;BME280;40758;54.038;11.684;2022-12-07T04:59:53;100622.16;;;1.37;100.00
7297;BME280;40758;54.038;11.684;2022-12-07T05:02:23;100616.81;;;1.38;100.00
7297;BME280;40758;54.038;11.684;2022-12-07T05:04:59;100620.31;;;1.39;100.00
7297;BME280;40758;54.038;11.684;2022-12-07T05:07:29;100608.94;;;1.37;100.00
7297;BME280;40758;54.038;11.684;2022-12-07T05:10:02;100619.41;;;1.40;100.00
7297;BME280;40758;54.038;11.684;2022-12-07T05:12:32;100624.53;;;1.43;100.00
7297;BME280;40758;54.038;11.684;2022-12-07T05:15:01;100620.91;;;1.45;100.00
7297;BME280;40758;54.038;11.684;2022-12-07T05:17:33;100612.03;;;1.46;100.00
7297;BME280;40758;54.038;11.684;2022-12-07T05:20:05;100622.56;;;1.48;100.00
7297;BME280;40758;54.038;11.684;2022-12-07T05:22:39;100610.56;;;1.58;100.00
7297;BME280;40758;54.038;11.684;2022-12-07T05:25:09;100606.22;;;1.57;100.00
7297;BME280;40758;54.038;11.684;2022-12-07T05:27:38;100620.25;;;1.59;100.00
7297;BME280;40758;54.038;11.684;2022-12-07T05:30:09;100626.75;;;1.52;100.00
7297;BME280;40758;54.038;11.684;2022-12-07T05:32:42;100625.03;;;1.51;100.00
7297;BME280;40758;54.038;11.684;2022-12-07T05:35:11;100621.59;;;1.30;100.00
7297;BME280;40758;54.038;11.684;2022-12-07T05:37:43;100625.47;;;1.04;100.00
7297;BME280;40758;54.038;11.684;2022-12-07T05:40:14;100620.19;;;1.04;100.00
7297;BME280;40758;54.038;11.684;2022-12-07T05:42:45;100621.75;;;1.08;100.00
7297;BME280;40758;54.038;11.684;2022-12-07T05:45:15;100624.91;;;1.16;100.00
7297;BME280;40758;54.038;11.684;2022-12-07T05:47:47;100624.47;;;1.26;100.00
7297;BME280;40758;54.038;11.684;2022-12-07T05:50:17;100620.78;;;1.30;100.00
7297;BME280;40758;54.038;11.684;2022-12-07T05:52:48;100626.59;;;1.36;100.00
7297;BME280;40758;54.038;11.684;2022-12-07T05:55:19;100623.97;;;1.36;100.00
7297;BME280;40758;54.038;11.684;2022-12-07T05:57:53;100627.34;;;1.40;100.00
7297;BME280;40758;54.038;11.684;2022-12-07T06:00:40;100622.97;;;1.39;100.00
7297;BME280;40758;54.038;11.684;2022-12-07T06:03:17;100621.53;;;1.32;100.00
7297;BME280;40758;54.038;11.684;2022-12-07T06:05:47;100620.09;;;1.25;100.00
7297;BME280;40758;54.038;11.684;2022-12-07T06:08:19;100619.91;;;1.29;100.00
7297;BME280;40758;54.038;11.684;2022-12-07T06:10:52;100626.06;;;1.30;100.00
7297;BME280;40758;54.038;11.684;2022-12-07T06:13:41;100630.41;;;1.31;100.00
7297;BME280;40758;54.038;11.684;2022-12-07T06:16:14;100635.91;;;1.26;100.00
7297;BME280;40758;54.038;11.684;2022-12-07T06:18:43;100634.84;;;1.30;100.00
7297;BME280;40758;54.038;11.684;2022-12-07T06:21:12;100638.50;;;1.28;100.00
7297;BME280;40758;54.038;11.684;2022-12-07T06:23:43;100636.06;;;1.23;100.00
7297;BME280;40758;54.038;11.684;2022-12-07T06:26:15;100637.91;;;1.21;100.00
7297;BME280;40758;54.038;11.684;2022-12-07T06:28:45;100629.91;;;1.23;100.00
7297;BME280;40758;54.038;11.684;2022-12-07T06:31:14;100636.91;;;1.23;100.00
7297;BME280;40758;54.038;11.684;2022-12-07T06:33:48;100631.34;;;1.30;100.00
7297;BME280;40758;54.038;11.684;2022-12-07T06:36:21;100635.06;;;1.26;100.00
7297;BME280;40758;54.038;11.684;2022-12-07T06:38:56;100630.41;;;1.31;100.00
7297;BME280;40758;54.038;11.684;2022-12-07T06:41:26;100635.69;;;1.31;100.00
7297;BME280;40758;54.038;11.684;2022-12-07T06:43:55;100639.28;;;1.30;100.00
7297;BME280;40758;54.038;11.684;2022-12-07T06:46:25;100645.56;;;1.27;100.00
7297;BME280;40758;54.038;11.684;2022-12-07T06:48:54;100633.34;;;1.25;100.00
7297;BME280;40758;54.038;11.684;2022-12-07T06:51:25;100639.94;;;1.35;100.00
7297;BME280;40758;54.038;11.684;2022-12-07T06:53:58;100634.00;;;1.30;100.00
7297;BME280;40758;54.038;11.684;2022-12-07T06:56:28;100634.94;;;1.29;100.00
7297;BME280;40758;54.038;11.684;2022-12-07T06:59:02;100638.16;;;1.35;100.00
7297;BME280;40758;54.038;11.684;2022-12-07T07:01:33;100636.50;;;1.33;100.00
7297;BME280;40758;54.038;11.684;2022-12-07T07:04:04;100637.63;;;1.46;100.00
7297;BME280;40758;54.038;11.684;2022-12-07T07:06:33;100639.44;;;1.45;100.00
7297;BME280;40758;54.038;11.684;2022-12-07T07:09:17;100638.34;;;1.49;100.00
7297;BME280;40758;54.038;11.684;2022-12-07T07:11:46;100640.34;;;1.44;100.00
7297;BME280;40758;54.038;11.684;2022-12-07T07:14:16;100639.50;;;1.44;100.00
7297;BME280;40758;54.038;11.684;2022-12-07T07:16:46;100643.56;;;1.51;100.00
7297;BME280;40758;54.038;11.684;2022-12-07T07:19:18;100644.72;;;1.64;100.00
7297;BME280;40758;54.038;11.684;2022-12-07T07:21:48;100641.75;;;1.70;100.00
7297;BME280;40758;54.038;11.684;2022-12-07T07:24:40;100635.00;;;1.82;100.00
7297;BME280;40758;54.038;11.684;2022-12-07T07:27:15;100638.75;;;1.78;100.00
7297;BME280;40758;54.038;11.684;2022-12-07T07:29:48;100640.47;;;1.79;100.00
7297;BME280;40758;54.038;11.684;2022-12-07T07:32:38;100639.75;;;1.75;100.00
7297;BME280;40758;54.038;11.684;2022-12-07T07:35:36;100638.69;;;1.60;100.00
7297;BME280;40758;54.038;11.684;2022-12-07T07:38:08;100634.63;;;1.53;100.00
7297;BME280;40758;54.038;11.684;2022-12-07T07:40:42;100638.50;;;1.46;100.00
7297;BME280;40758;54.038;11.684;2022-12-07T07:43:12;100646.50;;;1.45;100.00
7297;BME280;40758;54.038;11.684;2022-12-07T07:45:42;100646.22;;;1.51;100.00
7297;BME280;40758;54.038;11.684;2022-12-07T07:48:12;100641.56;;;1.56;100.00
7297;BME280;40758;54.038;11.684;2022-12-07T07:50:42;100642.66;;;1.52;100.00
7297;BME280;40758;54.038;11.684;2022-12-07T07:53:12;100641.00;;;1.49;100.00
7297;BME280;40758;54.038;11.684;2022-12-07T07:55:55;100648.88;;;1.51;100.00
7297;BME280;40758;54.038;11.684;2022-12-07T07:58:27;100653.50;;;1.65;100.00
7297;BME280;40758;54.038;11.684;2022-12-07T08:01:05;100656.56;;;1.74;100.00
7297;BME280;40758;54.038;11.684;2022-12-07T08:03:34;100657.00;;;1.84;100.00
7297;BME280;40758;54.038;11.684;2022-12-07T08:06:06;100646.47;;;1.82;100.00
7297;BME280;40758;54.038;11.684;2022-12-07T08:08:45;100650.22;;;1.78;100.00
7297;BME280;40758;54.038;11.684;2022-12-07T08:11:19;100650.22;;;1.78;100.00
7297;BME280;40758;54.038;11.684;2022-12-07T08:13:48;100652.13;;;1.75;100.00
7297;BME280;40758;54.038;11.684;2022-12-07T08:16:23;100655.63;;;1.75;100.00
7297;BME280;40758;54.038;11.684;2022-12-07T08:18:52;100659.09;;;1.77;100.00
7297;BME280;40758;54.038;11.684;2022-12-07T08:21:22;100641.75;;;1.70;100.00
7297;BME280;40758;54.038;11.684;2022-12-07T08:23:50;100642.19;;;1.61;100.00
7297;BME280;40758;54.038;11.684;2022-12-07T08:26:22;100644.06;;;1.59;100.00
7297;BME280;40758;54.038;11.684;2022-12-07T08:28:57;100637.06;;;1.58;100.00
7297;BME280;40758;54.038;11.684;2022-12-07T08:31:27;100647.47;;;1.61;100.00
7297;BME280;40758;54.038;11.684;2022-12-07T08:33:57;100641.63;;;1.54;100.00
7297;BME280;40758;54.038;11.684;2022-12-07T08:36:27;100641.22;;;1.45;100.00
7297;BME280;40758;54.038;11.684;2022-12-07T08:39:00;100637.63;;;1.46;100.00
7297;BME280;40758;54.038;11.684;2022-12-07T08:41:51;100637.13;;;1.38;100.00
7297;BME280;40758;54.038;11.684;2022-12-07T08:44:24;100635.78;;;1.29;100.00
7297;BME280;40758;54.038;11.684;2022-12-07T08:46:58;100635.50;;;1.35;100.00
7297;BME280;40758;54.038;11.684;2022-12-07T08:49:37;100642.78;;;1.49;100.00
7297;BME280;40758;54.038;11.684;2022-12-07T08:52:09;100632.97;;;1.51;100.00
7297;BME280;40758;54.038;11.684;2022-12-07T08:54:40;100639.66;;;1.41;100.00
7297;BME280;40758;54.038;11.684;2022-12-07T08:57:14;100637.06;;;1.39;100.00
7297;BME280;40758;54.038;11.684;2022-12-07T08:59:45;100642.34;;;1.39;100.00
7297;BME280;40758;54.038;11.684;2022-12-07T09:02:16;100635.91;;;1.45;100.00
7297;BME280;40758;54.038;11.684;2022-12-07T09:04:45;100634.53;;;1.55;100.00
7297;BME280;40758;54.038;11.684;2022-12-07T09:07:18;100633.53;;;1.57;100.00
7297;BME280;40758;54.038;11.684;2022-12-07T09:09:50;100640.50;;;1.60;100.00
7297;BME280;40758;54.038;11.684;2022-12-07T09:12:21;100634.34;;;1.59;100.00
7297;BME280;40758;54.038;11.684;2022-12-07T09:14:53;100634.75;;;1.69;100.00
7297;BME280;40758;54.038;11.684;2022-12-07T09:17:23;100641.06;;;1.67;100.00
7297;BME280;40758;54.038;11.684;2022-12-07T09:19:54;100634.75;;;1.69;100.00
7297;BME280;40758;54.038;11.684;2022-12-07T09:22:38;100632.59;;;1.77;100.00
7297;BME280;40758;54.038;11.684;2022-12-07T09:25:08;100623.81;;;1.94;100.00
7297;BME280;40758;54.038;11.684;2022-12-07T09:27:51;100628.31;;;1.92;100.00
7297;BME280;40758;54.038;11.684;2022-12-07T09:30:24;100624.06;;;1.89;100.00
7297;BME280;40758;54.038;11.684;2022-12-07T09:32:56;100629.84;;;1.97;100.00
7297;BME280;40758;54.038;11.684;2022-12-07T09:35:26;100632.19;;;2.03;100.00
7297;BME280;40758;54.038;11.684;2022-12-07T09:37:59;100622.66;;;1.99;100.00
7297;BME280;40758;54.038;11.684;2022-12-07T09:40:29;100629.03;;;1.95;100.00
7297;BME280;40758;54.038;11.684;2022-12-07T09:43:12;100629.13;;;1.94;100.00
7297;BME280;40758;54.038;11.684;2022-12-07T09:45:47;100624.84;;;2.09;100.00
7297;BME280;40758;54.038;11.684;2022-12-07T09:48:29;100615.66;;;2.33;100.00
7297;BME280;40758;54.038;11.684;2022-12-07T09:51:03;100614.75;;;2.34;100.00
7297;BME280;40758;54.038;11.684;2022-12-07T09:53:58;100603.97;;;2.37;100.00
7297;BME280;40758;54.038;11.684;2022-12-07T09:56:32;100612.38;;;2.45;100.00
7297;BME280;40758;54.038;11.684;2022-12-07T09:59:04;100601.84;;;2.43;100.00
7297;BME280;40758;54.038;11.684;2022-12-07T10:01:38;100598.59;;;2.38;100.00
7297;BME280;40758;54.038;11.684;2022-12-07T10:04:18;100593.22;;;2.40;100.00
7297;BME280;40758;54.038;11.684;2022-12-07T10:06:50;100596.00;;;2.37;100.00
7297;BME280;40758;54.038;11.684;2022-12-07T10:09:22;100593.66;;;2.48;100.00
7297;BME280;40758;54.038;11.684;2022-12-07T10:12:05;100579.13;;;2.55;100.00
7297;BME280;40758;54.038;11.684;2022-12-07T10:14:54;100571.13;;;2.72;100.00
7297;BME280;40758;54.038;11.684;2022-12-07T10:17:37;100579.41;;;2.83;100.00
7297;BME280;40758;54.038;11.684;2022-12-07T10:20:25;100578.09;;;2.75;100.00
7297;BME280;40758;54.038;11.684;2022-12-07T10:23:01;100562.91;;;2.61;100.00
7297;BME280;40758;54.038;11.684;2022-12-07T10:25:35;100564.91;;;2.40;100.00
7297;BME280;40758;54.038;11.684;2022-12-07T10:28:17;100565.84;;;2.39;100.00
7297;BME280;40758;54.038;11.684;2022-12-07T10:30:55;100564.38;;;2.34;100.00
7297;BME280;40758;54.038;11.684;2022-12-07T10:33:35;100560.59;;;2.38;100.00
7297;BME280;40758;54.038;11.684;2022-12-07T10:36:23;100549.06;;;2.39;100.00
7297;BME280;40758;54.038;11.684;2022-12-07T10:38:59;100546.69;;;2.50;100.00
7297;BME280;40758;54.038;11.684;2022-12-07T10:41:38;100538.88;;;2.64;100.00
7297;BME280;40758;54.038;11.684;2022-12-07T10:44:24;100535.75;;;2.89;100.00
7297;BME280;40758;54.038;11.684;2022-12-07T10:47:33;100529.44;;;3.07;100.00
7297;BME280;40758;54.038;11.684;2022-12-07T10:50:47;100517.09;;;3.06;100.00
7297;BME280;40758;54.038;11.684;2022-12-07T10:53:40;100502.63;;;3.12;100.00
7297;BME280;40758;54.038;11.684;2022-12-07T10:59:56;100509.19;;;2.73;100.00
7297;BME280;40758;54.038;11.684;2022-12-07T11:03:04;100505.19;;;2.82;100.00
7297;BME280;40758;54.038;11.684;2022-12-07T11:05:54;100497.03;;;2.85;100.00
7297;BME280;40758;54.038;11.684;2022-12-07T11:12:50;100499.13;;;2.47;100.00
7297;BME280;40758;54.038;11.684;2022-12-07T11:15:47;100497.03;;;2.36;100.00
7297;BME280;40758;54.038;11.684;2022-12-07T11:18:26;100483.13;;;2.33;100.00
7297;BME280;40758;54.038;11.684;2022-12-07T11:21:09;100490.47;;;2.28;100.00
7297;BME280;40758;54.038;11.684;2022-12-07T11:23:51;100485.16;;;2.28;100.00
7297;BME280;40758;54.038;11.684;2022-12-07T11:26:40;100484.66;;;2.37;100.00
7297;BME280;40758;54.038;11.684;2022-12-07T11:29:33;100484.66;;;2.37;100.00
7297;BME280;40758;54.038;11.684;2022-12-07T11:32:19;100470.28;;;2.41;100.00
7297;BME280;40758;54.038;11.684;2022-12-07T11:35:11;100468.41;;;2.43;100.00
7297;BME280;40758;54.038;11.684;2022-12-07T11:37:49;100470.13;;;2.44;100.00
7297;BME280;40758;54.038;11.684;2022-12-07T11:40:28;100453.28;;;2.45;100.00
7297;BME280;40758;54.038;11.684;2022-12-07T11:43:15;100456.28;;;2.39;100.00
7297;BME280;40758;54.038;11.684;2022-12-07T11:45:50;100458.13;;;2.37;100.00
7297;BME280;40758;54.038;11.684;2022-12-07T11:48:31;100449.25;;;2.38;100.00
7297;BME280;40758;54.038;11.684;2022-12-07T11:51:10;100445.06;;;2.34;100.00
7297;BME280;40758;54.038;11.684;2022-12-07T11:53:45;100448.56;;;2.34;100.00
7297;BME280;40758;54.038;11.684;2022-12-07T11:56:20;100446.94;;;2.32;100.00
7297;BME280;40758;54.038;11.684;2022-12-07T11:58:58;100426.66;;;2.31;100.00
7297;BME280;40758;54.038;11.684;2022-12-07T12:01:47;100434.78;;;2.28;100.00
7297;BME280;40758;54.038;11.684;2022-12-07T12:04:45;100432.28;;;2.25;100.00
7297;BME280;40758;54.038;11.684;2022-12-07T12:07:22;100427.84;;;2.25;100.00
7297;BME280;40758;54.038;11.684;2022-12-07T12:10:21;100391.94;;;2.20;100.00
7297;BME280;40758;54.038;11.684;2022-12-07T12:13:32;100425.28;;;2.24;100.00
7297;BME280;40758;54.038;11.684;2022-12-07T12:16:58;100413.91;;;2.22;100.00
7297;BME280;40758;54.038;11.684;2022-12-07T12:19:46;100400.88;;;2.17;100.00
7297;BME280;40758;54.038;11.684;2022-12-07T12:22:35;100404.13;;;2.22;100.00
7297;BME280;40758;54.038;11.684;2022-12-07T12:25:21;100403.47;;;2.19;100.00
7297;BME280;40758;54.038;11.684;2022-12-07T12:27:54;100402.53;;;2.20;100.00
7297;BME280;40758;54.038;11.684;2022-12-07T12:30:32;100399.09;;;2.18;100.00
7297;BME280;40758;54.038;11.684;2022-12-07T12:33:12;100389.44;;;2.17;100.00
7297;BME280;40758;54.038;11.684;2022-12-07T12:35:45;100393.97;;;2.15;100.00
7297;BME280;40758;54.038;11.684;2022-12-07T12:38:31;100374.91;;;2.08;100.00
7297;BME280;40758;54.038;11.684;2022-12-07T12:41:03;100393.44;;;2.08;100.00
7297;BME280;40758;54.038;11.684;2022-12-07T12:43:58;100368.88;;;2.04;100.00
7297;BME280;40758;54.038;11.684;2022-12-07T12:46:51;100390.88;;;2.07;100.00
7297;BME280;40758;54.038;11.684;2022-12-07T12:50:11;100387.22;;;2.09;100.00
7297;BME280;40758;54.038;11.684;2022-12-07T12:53:05;100389.69;;;2.12;100.00
7297;BME280;40758;54.038;11.684;2022-12-07T12:59:28;100384.63;;;2.08;100.00
7297;BME280;40758;54.038;11.684;2022-12-07T13:02:26;100385.41;;;2.10;100.00
7297;BME280;40758;54.038;11.684;2022-12-07T13:04:59;100383.72;;;2.09;100.00
7297;BME280;40758;54.038;11.684;2022-12-07T13:08:00;100382.84;;;2.08;100.00
7297;BME280;40758;54.038;11.684;2022-12-07T13:10:54;100394.13;;;2.12;100.00
7297;BME280;40758;54.038;11.684;2022-12-07T13:13:47;100392.59;;;2.08;100.00
7297;BME280;40758;54.038;11.684;2022-12-07T13:16:50;100389.94;;;2.08;100.00
7297;BME280;40758;54.038;11.684;2022-12-07T13:19:54;100406.78;;;2.07;100.00
7297;BME280;40758;54.038;11.684;2022-12-07T13:22:52;100403.19;;;2.08;100.00
7297;BME280;40758;54.038;11.684;2022-12-07T13:25:46;100397.63;;;2.12;100.00
7297;BME280;40758;54.038;11.684;2022-12-07T13:28:33;100402.84;;;2.14;100.00
7297;BME280;40758;54.038;11.684;2022-12-07T13:31:34;100404.97;;;2.07;100.00
7297;BME280;40758;54.038;11.684;2022-12-07T13:34:30;100408.88;;;2.00;100.00
7297;BME280;40758;54.038;11.684;2022-12-07T13:37:02;100416.69;;;2.03;100.00
7297;BME280;40758;54.038;11.684;2022-12-07T13:39:46;100411.63;;;1.98;100.00
7297;BME280;40758;54.038;11.684;2022-12-07T13:42:32;100416.69;;;2.03;100.00
7297;BME280;40758;54.038;11.684;2022-12-07T13:45:27;100431.56;;;2.06;100.00
7297;BME280;40758;54.038;11.684;2022-12-07T13:48:19;100427.28;;;1.86;100.00
7297;BME280;40758;54.038;11.684;2022-12-07T13:51:29;100436.88;;;1.37;100.00
7297;BME280;40758;54.038;11.684;2022-12-07T13:54:11;100450.59;;;1.28;100.00
7297;BME280;40758;54.038;11.684;2022-12-07T13:56:51;100441.72;;;1.29;100.00
7297;BME280;40758;54.038;11.684;2022-12-07T13:59:25;100441.56;;;1.32;100.00